createdAt,value
2023-05-09T00:00:29.493Z,0.062
2023-05-09T00:01:29.947Z,0.062
2023-05-09T00:02:30.884Z,0.062
2023-05-09T00:03:30.439Z,0.071
2023-05-09T00:05:30.773Z,0.071
2023-05-09T00:06:29.987Z,0.071
2023-05-09T00:07:29.175Z,0.071
2023-05-09T00:08:29.377Z,0.071
2023-05-09T00:09:29.628Z,0.071
2023-05-09T00:10:29.849Z,0.071
2023-05-09T00:11:30.044Z,0.071
2023-05-09T00:12:29.225Z,0.071
2023-05-09T00:13:30.035Z,0.071
2023-05-09T00:15:29.566Z,0.062
2023-05-09T00:16:30.208Z,0.062
2023-05-09T00:17:29.474Z,0.062
2023-05-09T00:18:29.746Z,0.062
2023-05-09T00:19:30.208Z,0.062
2023-05-09T00:20:29.484Z,0.062
2023-05-09T00:21:29.720Z,0.062
2023-05-09T00:22:30.090Z,0.062
2023-05-09T00:23:29.522Z,0.062
2023-05-09T00:24:29.725Z,0.062
2023-05-09T00:25:30.334Z,0.062
2023-05-09T00:26:29.502Z,0.054
2023-05-09T00:27:29.709Z,0.054
2023-05-09T00:28:29.893Z,0.054
2023-05-09T00:29:30.203Z,0.054
2023-05-09T00:30:29.403Z,0.054
2023-05-09T00:31:29.762Z,0.054
2023-05-09T00:32:30.349Z,0.054
2023-05-09T00:34:29.817Z,0.062
2023-05-09T00:35:30.486Z,0.062
2023-05-09T00:36:29.672Z,0.062
2023-05-09T00:37:29.862Z,0.062
2023-05-09T00:38:30.115Z,0.062
2023-05-09T00:39:29.259Z,0.062
2023-05-09T00:40:29.598Z,0.071
2023-05-09T00:41:29.756Z,0.071
2023-05-09T00:42:29.985Z,0.071
2023-05-09T00:43:29.182Z,0.071
2023-05-09T00:44:29.355Z,0.071
2023-05-09T00:45:29.880Z,0.080
2023-05-09T00:46:30.614Z,0.080
2023-05-09T00:47:30.030Z,0.080
2023-05-09T00:48:29.253Z,0.080
2023-05-09T00:49:29.413Z,0.080
2023-05-09T00:50:29.690Z,0.080
2023-05-09T00:51:29.864Z,0.080
2023-05-09T00:52:30.123Z,0.071
2023-05-09T00:53:29.320Z,0.071
2023-05-09T00:54:29.524Z,0.071
2023-05-09T00:55:30.149Z,0.071
2023-05-09T00:56:29.349Z,0.071
2023-05-09T00:57:29.628Z,0.071
2023-05-09T00:58:29.832Z,0.071
2023-05-09T00:59:33.018Z,0.071
2023-05-09T01:00:29.192Z,0.071
2023-05-09T01:01:29.631Z,0.071
2023-05-09T01:02:30.425Z,0.071
2023-05-09T01:03:30.236Z,0.071
2023-05-09T01:04:29.445Z,0.071
2023-05-09T01:05:30.645Z,0.071
2023-05-09T01:06:29.838Z,0.071
2023-05-09T01:07:30.074Z,0.071
2023-05-09T01:09:29.453Z,0.071
2023-05-09T01:10:29.726Z,0.080
2023-05-09T01:11:30.058Z,0.080
2023-05-09T01:12:29.313Z,0.080
2023-05-09T01:13:29.944Z,0.080
2023-05-09T01:14:30.106Z,0.080
2023-05-09T01:15:29.295Z,0.080
2023-05-09T01:16:30.015Z,0.080
2023-05-09T01:17:29.401Z,0.080
2023-05-09T01:18:29.691Z,0.080
2023-05-09T01:19:29.860Z,0.080
2023-05-09T01:20:30.151Z,0.080
2023-05-09T01:21:29.303Z,0.080
2023-05-09T01:22:29.590Z,0.080
2023-05-09T01:23:29.846Z,0.080
2023-05-09T01:24:30.090Z,0.080
2023-05-09T01:25:29.285Z,0.080
2023-05-09T01:26:29.527Z,0.080
2023-05-09T01:27:29.779Z,0.080
2023-05-09T01:28:29.986Z,0.080
2023-05-09T01:29:29.163Z,0.089
2023-05-09T01:30:29.417Z,0.089
2023-05-09T01:31:29.940Z,0.089
2023-05-09T01:32:29.277Z,0.089
2023-05-09T01:33:29.490Z,0.089
2023-05-09T01:34:29.732Z,0.089
2023-05-09T01:35:30.390Z,0.089
2023-05-09T01:36:29.708Z,0.089
2023-05-09T01:37:29.912Z,0.089
2023-05-09T01:38:30.221Z,0.089
2023-05-09T01:39:29.450Z,0.089
2023-05-09T01:40:29.710Z,0.089
2023-05-09T01:41:29.922Z,0.089
2023-05-09T01:42:30.131Z,0.089
2023-05-09T01:43:29.349Z,0.089
2023-05-09T01:44:30.050Z,0.089
2023-05-09T01:45:29.559Z,0.089
2023-05-09T01:46:29.960Z,0.089
2023-05-09T01:47:29.315Z,0.089
2023-05-09T01:48:29.688Z,0.089
2023-05-09T01:49:29.931Z,0.089
2023-05-09T01:50:30.207Z,0.089
2023-05-09T01:51:30.179Z,0.089
2023-05-09T01:52:29.506Z,0.089
2023-05-09T01:53:29.713Z,0.089
2023-05-09T01:54:29.918Z,0.089
2023-05-09T01:55:30.415Z,0.089
2023-05-09T01:56:29.596Z,0.089
2023-05-09T01:57:29.771Z,0.089
2023-05-09T01:58:29.970Z,0.089
2023-05-09T01:59:29.159Z,0.080
2023-05-09T02:00:29.429Z,0.080
2023-05-09T02:01:30.394Z,0.080
2023-05-09T02:03:30.632Z,0.080
2023-05-09T02:04:29.777Z,0.080
2023-05-09T02:05:29.981Z,0.080
2023-05-09T02:06:29.231Z,0.080
2023-05-09T02:07:29.425Z,0.080
2023-05-09T02:08:29.635Z,0.080
2023-05-09T02:09:29.873Z,0.080
2023-05-09T02:10:30.055Z,0.080
2023-05-09T02:11:29.269Z,0.080
2023-05-09T02:12:29.421Z,0.080
2023-05-09T02:13:30.221Z,0.080
2023-05-09T02:14:29.541Z,0.080
2023-05-09T02:15:29.706Z,0.080
2023-05-09T02:16:32.444Z,0.080
2023-05-09T02:17:30.163Z,0.080
2023-05-09T02:18:29.419Z,0.080
2023-05-09T02:19:29.688Z,0.080
2023-05-09T02:20:29.934Z,0.080
2023-05-09T02:21:33.020Z,0.080
2023-05-09T02:22:29.506Z,0.089
2023-05-09T02:23:29.727Z,0.089
2023-05-09T02:24:30.202Z,0.089
2023-05-09T02:25:29.388Z,0.089
2023-05-09T02:26:29.699Z,0.089
2023-05-09T02:27:30.113Z,0.089
2023-05-09T02:28:29.452Z,0.089
2023-05-09T02:29:29.668Z,0.098
2023-05-09T02:30:30.058Z,0.098
2023-05-09T02:31:29.413Z,0.098
2023-05-09T02:32:29.873Z,0.098
2023-05-09T02:33:30.164Z,0.098
2023-05-09T02:34:29.467Z,0.098
2023-05-09T02:35:29.692Z,0.098
2023-05-09T02:36:29.965Z,0.107
2023-05-09T02:37:30.183Z,0.107
2023-05-09T02:38:29.333Z,0.107
2023-05-09T02:39:29.483Z,0.116
2023-05-09T02:40:30.029Z,0.116
2023-05-09T02:41:29.758Z,0.125
2023-05-09T02:42:29.973Z,0.134
2023-05-09T02:43:29.282Z,0.143
2023-05-09T02:44:29.446Z,0.152
2023-05-09T02:45:30.101Z,0.161
2023-05-09T02:46:29.734Z,0.169
2023-05-09T02:47:30.140Z,0.178
2023-05-09T02:48:29.533Z,0.196
2023-05-09T02:52:30.506Z,0.303
2023-05-09T02:53:29.868Z,0.348
2023-05-09T02:54:30.092Z,0.392
2023-05-09T02:55:29.484Z,0.455
2023-05-09T02:56:29.705Z,0.526
2023-05-09T02:57:29.933Z,0.615
2023-05-09T02:58:30.879Z,0.713
2023-05-09T02:59:29.189Z,0.838
2023-05-09T03:00:29.543Z,0.972
2023-05-09T03:01:30.139Z,1.150
2023-05-09T03:02:29.930Z,1.346
2023-05-09T03:03:30.375Z,1.578
2023-05-09T03:04:29.770Z,1.846
2023-05-09T03:05:30.323Z,2.176
2023-05-09T03:06:29.576Z,2.550
2023-05-09T03:07:29.776Z,2.987
2023-05-09T03:08:29.988Z,3.504
2023-05-09T03:09:29.109Z,4.111
2023-05-09T03:10:29.806Z,4.842
2023-05-09T03:11:30.081Z,5.733
2023-05-09T03:12:29.425Z,6.750
2023-05-09T03:13:30.366Z,7.989
2023-05-09T03:14:29.562Z,9.416
2023-05-09T03:15:29.744Z,11.092
2023-05-09T03:16:30.820Z,13.054
2023-05-09T03:17:30.250Z,15.346
2023-05-09T03:18:29.454Z,17.994
2023-05-09T03:19:29.638Z,21.141
2023-05-09T03:20:29.866Z,24.878
2023-05-09T03:21:30.107Z,29.264
2023-05-09T03:22:29.285Z,34.222
2023-05-09T03:23:29.461Z,39.938
2023-05-09T03:24:29.758Z,46.474
2023-05-09T03:25:29.967Z,53.883
2023-05-09T03:26:29.210Z,61.998
2023-05-09T03:27:29.430Z,71.342
2023-05-09T03:28:29.617Z,81.739
2023-05-09T03:29:29.846Z,93.500
2023-05-09T03:30:30.066Z,106.661
2023-05-09T03:31:29.493Z,121.097
2023-05-09T03:32:31.119Z,137.022
2023-05-09T03:33:29.365Z,153.313
2023-05-09T03:34:29.541Z,170.505
2023-05-09T03:35:30.199Z,189.675
2023-05-09T03:36:29.531Z,211.093
2023-05-09T03:37:32.759Z,235.801
2023-05-09T03:38:29.943Z,262.034
2023-05-09T03:39:30.100Z,290.068
2023-05-09T03:42:29.711Z,382.445
2023-05-09T03:43:29.923Z,418.031
2023-05-09T03:44:30.156Z,456.462
2023-05-09T03:45:29.327Z,496.230
2023-05-09T03:46:29.796Z,518.736
2023-05-09T03:47:30.192Z,559.503
2023-05-09T03:48:29.415Z,600.270
2023-05-09T03:49:29.575Z,637.506
2023-05-09T03:50:29.756Z,674.421
2023-05-09T03:51:29.907Z,712.138
2023-05-09T03:52:30.612Z,748.732
2023-05-09T03:53:29.810Z,786.289
2023-05-09T03:54:29.992Z,822.402
2023-05-09T03:55:29.595Z,856.428
2023-05-09T03:56:29.805Z,889.331
2023-05-09T03:57:30.028Z,923.357
2023-05-09T03:58:29.198Z,961.395
2023-05-09T03:59:29.399Z,1003.446
2023-05-09T04:00:29.746Z,1055.127
2023-05-09T04:01:30.028Z,1118.525
2023-05-09T04:02:29.881Z,1183.848
2023-05-09T04:03:31.015Z,1243.394
2023-05-09T04:04:29.346Z,1308.717
2023-05-09T04:05:29.920Z,1383.349
2023-05-09T04:06:30.162Z,1459.105
2023-05-09T04:07:29.447Z,1530.849
2023-05-09T04:08:29.626Z,1600.345
2023-05-09T04:09:29.843Z,1656.521
2023-05-09T04:10:30.062Z,1712.535
2023-05-09T04:11:29.318Z,1758.117
2023-05-09T04:12:29.577Z,1816.860
2023-05-09T04:13:30.382Z,1901.283
2023-05-09T04:14:29.643Z,2031.770
2023-05-09T04:15:30.232Z,2202.702
2023-05-09T04:16:29.620Z,2339.127
2023-05-09T04:17:30.126Z,2454.206
2023-05-09T04:18:29.317Z,2555.642
2023-05-09T04:19:29.509Z,2659.806
2023-05-09T04:20:29.762Z,2763.489
2023-05-09T04:21:30.027Z,2854.492
2023-05-09T04:22:29.570Z,2989.312
2023-05-09T04:23:30.044Z,3187.369
2023-05-09T04:24:29.250Z,3411.267
2023-05-09T04:25:29.875Z,3661.166
2023-05-09T04:26:30.237Z,3928.879
2023-05-09T04:27:29.413Z,4178.778
2023-05-09T04:28:29.598Z,4368.489
2023-05-09T04:29:29.726Z,4531.396
2023-05-09T04:30:29.967Z,4673.760
2023-05-09T04:31:29.921Z,4830.248
2023-05-09T04:32:30.336Z,5011.452
2023-05-09T04:33:29.532Z,5174.681
2023-05-09T04:34:29.852Z,5332.612
2023-05-09T04:35:32.775Z,5519.755
2023-05-09T04:36:29.955Z,5718.936
2023-05-09T04:37:30.149Z,5875.745
2023-05-09T04:38:29.313Z,6042.022
2023-05-09T04:39:29.494Z,6276.673
2023-05-09T04:40:33.152Z,6560.117
2023-05-09T04:41:29.376Z,6780.001
2023-05-09T04:42:29.624Z,6801.830
2023-05-09T04:43:29.976Z,6658.182
2023-05-09T04:44:29.290Z,6449.853
2023-05-09T04:45:29.622Z,6253.401
2023-05-09T04:46:32.722Z,6158.385
2023-05-09T04:47:30.127Z,6137.039
2023-05-09T04:48:29.333Z,6169.941
2023-05-09T04:49:29.527Z,6244.574
2023-05-09T04:50:29.828Z,6338.466
2023-05-09T04:51:30.197Z,6458.199
2023-05-09T04:52:30.185Z,6593.500
2023-05-09T04:53:29.408Z,6762.186
2023-05-09T04:54:29.865Z,6953.823
2023-05-09T04:55:30.391Z,7165.522
2023-05-09T04:56:29.586Z,7430.348
2023-05-09T04:57:30.868Z,7747.496
2023-05-09T04:58:30.097Z,8146.980
2023-05-09T04:59:29.244Z,8567.650
2023-05-09T05:00:29.409Z,9016.248
2023-05-09T05:01:30.063Z,9477.846
2023-05-09T05:02:29.493Z,9866.737
2023-05-09T05:03:29.746Z,10226.097
2023-05-09T05:04:30.489Z,10552.233
2023-05-09T05:05:40.052Z,10850.281
2023-05-09T05:06:29.324Z,11155.071
2023-05-09T05:07:29.595Z,11464.676
2023-05-09T05:08:29.788Z,11809.108
2023-05-09T05:09:29.971Z,12164.937
2023-05-09T05:10:29.216Z,13364.354
2023-05-09T05:11:29.471Z,12803.727
2023-05-09T05:12:29.674Z,12888.471
2023-05-09T05:13:30.422Z,13061.329
2023-05-09T05:14:29.596Z,13247.830
2023-05-09T05:15:29.738Z,13483.605
2023-05-09T05:16:30.605Z,13657.105
2023-05-09T05:17:30.298Z,13666.735
2023-05-09T05:18:29.482Z,13791.926
2023-05-09T05:19:29.728Z,13991.427
2023-05-09T05:20:29.982Z,14152.569
2023-05-09T05:21:29.172Z,14294.933
2023-05-09T05:22:31.650Z,14394.121
2023-05-09T05:23:29.997Z,14587.845
2023-05-09T05:24:29.417Z,17138.350
2023-05-09T05:25:29.549Z,14899.536
2023-05-09T05:26:29.760Z,14314.514
2023-05-09T05:27:29.986Z,14239.560
2023-05-09T05:28:29.197Z,15711.345
2023-05-09T05:29:29.405Z,15882.599
2023-05-09T05:30:30.361Z,16772.250
2023-05-09T05:31:29.438Z,14389.628
2023-05-09T05:32:29.757Z,16596.984
2023-05-09T05:33:30.046Z,17842.945
2023-05-09T05:34:29.226Z,26231.156
2023-05-09T05:35:29.969Z,22192.174
2023-05-09T05:36:30.250Z,18786.686
2023-05-09T05:37:29.518Z,17096.941
2023-05-09T05:38:29.743Z,17616.320
2023-05-09T05:39:30.149Z,18776.092
2023-05-09T05:40:29.334Z,22062.170
2023-05-09T05:41:29.521Z,26317.826
2023-05-09T05:42:29.802Z,24492.941
2023-05-09T05:43:30.080Z,24076.123
2023-05-09T05:44:29.226Z,24544.463
2023-05-09T05:45:30.004Z,25561.070
2023-05-09T05:46:29.688Z,29431.367
2023-05-09T05:47:31.830Z,32040.775
2023-05-09T05:48:29.546Z,40885.129
2023-05-09T05:49:29.730Z,40744.852
2023-05-09T05:50:29.986Z,37306.301
2023-05-09T05:51:29.274Z,38838.273
2023-05-09T05:52:29.723Z,37486.059
2023-05-09T05:53:31.535Z,35196.047
2023-05-09T05:54:29.990Z,40426.578
2023-05-09T05:55:29.646Z,41075.961
2023-05-09T05:56:29.795Z,33764.062
2023-05-09T05:57:29.951Z,34222.773
2023-05-09T05:58:30.186Z,37007.609
2023-05-09T05:59:29.438Z,31024.811
2023-05-09T06:00:30.005Z,28378.006
2023-05-09T06:01:29.259Z,32144.137
2023-05-09T06:02:29.937Z,31391.072
2023-05-09T06:03:30.000Z,26493.895
2023-05-09T06:04:29.486Z,26765.141
2023-05-09T06:05:29.978Z,29997.129
2023-05-09T06:06:29.168Z,31257.215
2023-05-09T06:07:29.435Z,30754.207
2023-05-09T06:08:29.692Z,25379.865
2023-05-09T06:09:29.961Z,23316.799
2023-05-09T06:10:30.192Z,23298.982
2023-05-09T06:11:29.444Z,25765.547
2023-05-09T06:12:31.982Z,26144.006
2023-05-09T06:13:29.846Z,23839.225
2023-05-09T06:14:30.098Z,24146.262
2023-05-09T06:15:29.653Z,24507.707
2023-05-09T06:16:32.207Z,24694.852
2023-05-09T06:17:29.817Z,24769.322
2023-05-09T06:18:30.137Z,24729.197
2023-05-09T06:19:29.318Z,24762.422
2023-05-09T06:20:29.480Z,25055.654
2023-05-09T06:21:29.752Z,25639.875
2023-05-09T06:22:29.930Z,26275.135
2023-05-09T06:23:30.145Z,29489.307
2023-05-09T06:24:43.139Z,28213.172
2023-05-09T06:27:29.428Z,27094.326
2023-05-09T06:28:29.651Z,27454.648
2023-05-09T06:29:29.883Z,27454.648
2023-05-09T06:31:32.417Z,27677.582
2023-05-09T06:34:29.319Z,39583.312
2023-05-09T06:35:29.851Z,54376.438
2023-05-09T06:36:30.045Z,58177.238
2023-05-09T06:37:29.235Z,61214.059
2023-05-09T06:38:29.441Z,58855.352
2023-05-09T06:39:29.661Z,54847.344
2023-05-09T06:40:29.878Z,61195.281
2023-05-09T06:41:30.127Z,66385.047
2023-05-09T06:42:29.359Z,66605.414
2023-05-09T06:43:29.682Z,69163.945
2023-05-09T06:44:29.834Z,70249.086
2023-05-09T06:45:31.213Z,70175.898
2023-05-09T06:46:29.839Z,81707.180
2023-05-09T06:47:30.290Z,82977.539
2023-05-09T06:48:29.563Z,79916.320
2023-05-09T06:49:29.800Z,74797.336
2023-05-09T06:50:31.468Z,70967.961
2023-05-09T06:51:30.069Z,73768.047
2023-05-09T06:52:29.300Z,77389.727
2023-05-09T06:53:29.632Z,75195.211
2023-05-09T06:54:29.849Z,50676.430
2023-05-09T06:55:30.800Z,46929.719
2023-05-09T06:56:31.835Z,48212.434
2023-05-09T06:57:30.416Z,48500.211
2023-05-09T06:58:29.689Z,49342.676
2023-05-09T06:59:29.926Z,49681.492
2023-05-09T07:00:30.287Z,42747.410
2023-05-09T07:01:29.799Z,36325.004
2023-05-09T07:02:30.491Z,32876.660
2023-05-09T07:03:29.738Z,31714.479
2023-05-09T07:04:30.024Z,31511.285
2023-05-09T07:05:30.295Z,32931.871
2023-05-09T07:06:29.549Z,32416.666
2023-05-09T07:07:29.803Z,32465.779
2023-05-09T07:08:30.119Z,31070.072
2023-05-09T07:09:29.322Z,29705.660
2023-05-09T07:10:29.502Z,28501.109
2023-05-09T07:11:29.852Z,27530.887
2023-05-09T07:12:30.057Z,26853.736
2023-05-09T07:14:30.269Z,25955.258
2023-05-09T07:15:47.079Z,25933.750
2023-05-09T07:17:36.256Z,27555.764
2023-05-09T07:18:29.466Z,28643.150
2023-05-09T07:19:29.822Z,26792.426
2023-05-09T07:20:30.429Z,26159.092
2023-05-09T07:21:29.831Z,25496.227
2023-05-09T07:22:34.784Z,26103.398
2023-05-09T07:23:29.691Z,82157.383
2023-05-09T07:24:29.934Z,86324.766
2023-05-09T07:25:30.507Z,82556.383
2023-05-09T07:26:29.708Z,78107.969
2023-05-09T07:27:30.273Z,81546.844
2023-05-09T07:28:29.515Z,83459.836
2023-05-09T07:29:29.782Z,84637.109
2023-05-09T07:30:30.493Z,82844.320
2023-05-09T07:31:29.818Z,83370.438
2023-05-09T07:32:30.398Z,73855.359
2023-05-09T07:33:29.601Z,77035.828
2023-05-09T07:34:29.839Z,79976.672
2023-05-09T07:35:30.466Z,75748.617
2023-05-09T07:36:29.648Z,72522.570
2023-05-09T07:37:31.981Z,74039.133
2023-05-09T07:38:29.138Z,71624.086
2023-05-09T07:39:29.390Z,72862.984
2023-05-09T07:40:30.988Z,75551.523
2023-05-09T07:41:29.314Z,83774.102
2023-05-09T07:42:29.771Z,85025.516
2023-05-09T07:43:30.094Z,89701.688
2023-05-09T07:44:29.400Z,92303.547
2023-05-09T07:46:30.388Z,78107.648
2023-05-09T07:47:29.652Z,78294.789
2023-05-09T07:48:29.912Z,85849.844
2023-05-09T07:49:30.126Z,94208.523
2023-05-09T07:51:29.911Z,80217.742
2023-05-09T07:52:30.364Z,86145.484
2023-05-09T07:53:29.831Z,92814.102
2023-05-09T07:54:30.105Z,86157.844
2023-05-09T07:55:29.750Z,97321.586
2023-05-09T07:56:29.985Z,104134.008
2023-05-09T07:57:29.244Z,90915.703
2023-05-09T07:58:29.460Z,84370.195
2023-05-09T07:59:29.705Z,88057.844
2023-05-09T08:00:30.074Z,94205.953
2023-05-09T08:01:29.398Z,97314.680
2023-05-09T08:02:30.192Z,95732.633
2023-05-09T08:03:30.128Z,92642.367
2023-05-09T08:05:30.360Z,89167.859
2023-05-09T08:06:29.629Z,87719.031
2023-05-09T08:07:30.006Z,92776.062
2023-05-09T08:08:29.228Z,97715.453
2023-05-09T08:09:29.440Z,101531.977
2023-05-09T08:10:29.710Z,101343.234
2023-05-09T08:11:30.024Z,89254.852
2023-05-09T08:12:29.330Z,82221.102
2023-05-09T08:13:30.034Z,75590.367
2023-05-09T08:14:31.189Z,67000.242
2023-05-09T08:15:29.798Z,62832.699
2023-05-09T08:16:30.336Z,66958.195
2023-05-09T08:17:29.681Z,73859.695
2023-05-09T08:18:29.963Z,75932.711
2023-05-09T08:19:29.161Z,80132.516
2023-05-09T08:20:29.438Z,86073.906
2023-05-09T08:21:33.150Z,87576.828
2023-05-09T08:22:29.416Z,92831.438
2023-05-09T08:23:29.730Z,103277.578
2023-05-09T08:24:29.983Z,106407.008
2023-05-09T08:25:29.324Z,102796.719
2023-05-09T08:26:29.541Z,101545.945
2023-05-09T08:27:29.842Z,102980.492
2023-05-09T08:28:31.000Z,104572.492
2023-05-09T08:29:29.234Z,105084.008
2023-05-09T08:31:30.228Z,95655.594
2023-05-09T08:32:29.535Z,92131.812
2023-05-09T08:33:29.800Z,88792.453
2023-05-09T08:34:30.064Z,88700.164
2023-05-09T08:35:29.463Z,92894.352
2023-05-09T08:36:29.686Z,94907.500
2023-05-09T08:37:31.265Z,96418.445
2023-05-09T08:38:29.458Z,99066.539
2023-05-09T08:39:29.718Z,97430.719
2023-05-09T08:40:30.477Z,91325.141
2023-05-09T08:41:29.736Z,90658.906
2023-05-09T08:42:32.778Z,99889.742
2023-05-09T08:43:30.003Z,107951.336
2023-05-09T08:46:30.229Z,103015.320
2023-05-09T08:47:29.607Z,108623.031
2023-05-09T08:48:29.894Z,108111.031
2023-05-09T08:49:30.112Z,101083.062
2023-05-09T08:50:30.039Z,101787.172
2023-05-09T08:51:29.249Z,106914.188
2023-05-09T08:52:29.442Z,109639.156
2023-05-09T08:53:29.783Z,105365.523
2023-05-09T08:54:32.229Z,102400.281
2023-05-09T08:55:29.554Z,105800.961
2023-05-09T08:56:29.820Z,112419.820
2023-05-09T08:57:30.150Z,117178.805
2023-05-09T08:58:29.422Z,117842.953
2023-05-09T08:59:29.639Z,115570.750
2023-05-09T09:00:33.261Z,113667.867
2023-05-09T09:01:29.674Z,109964.969
2023-05-09T09:02:30.355Z,105241.133
2023-05-09T09:03:29.827Z,97077.945
2023-05-09T09:04:30.720Z,94386.359
2023-05-09T09:05:46.476Z,104876.797
2023-05-09T09:06:29.675Z,111469.336
2023-05-09T09:07:31.178Z,110831.992
2023-05-09T09:10:30.338Z,113879.727
2023-05-09T09:11:29.601Z,124510.125
2023-05-09T09:12:29.809Z,121916.602
2023-05-09T09:13:30.609Z,110066.727
2023-05-09T09:14:29.991Z,101705.641
2023-05-09T09:15:29.195Z,103648.172
2023-05-09T09:16:30.046Z,104461.906
2023-05-09T09:17:29.356Z,100424.047
2023-05-09T09:18:29.703Z,102704.430
2023-05-09T09:19:29.997Z,105472.578
2023-05-09T09:20:29.518Z,97741.453
2023-05-09T09:21:29.804Z,106181.500
2023-05-09T09:22:30.071Z,125399.609
2023-05-09T09:23:29.326Z,110403.617
2023-05-09T09:24:29.558Z,94341.898
2023-05-09T09:25:29.831Z,89005.914
2023-05-09T09:26:30.126Z,96795.305
2023-05-09T09:27:29.464Z,109018.180
2023-05-09T09:28:29.699Z,114687.844
2023-05-09T09:29:30.023Z,113342.852
2023-05-09T09:30:29.284Z,109320.078
2023-05-09T09:31:33.259Z,111235.484
2023-05-09T09:32:29.697Z,115697.391
2023-05-09T09:33:30.053Z,120210.969
2023-05-09T09:34:29.348Z,123239.445
2023-05-09T09:35:29.654Z,122807.859
2023-05-09T09:36:29.848Z,136175.266
2023-05-09T09:37:30.478Z,142255.484
2023-05-09T09:38:29.714Z,123026.781
2023-05-09T09:39:29.967Z,97453.992
2023-05-09T09:40:30.766Z,84734.688
2023-05-09T09:41:29.972Z,96292.617
2023-05-09T09:42:30.577Z,105768.859
2023-05-09T09:44:30.138Z,124339.828
2023-05-09T09:45:29.621Z,134367.234
2023-05-09T09:46:30.359Z,129690.898
2023-05-09T09:47:29.753Z,117846.320
2023-05-09T09:48:30.170Z,112486.422
2023-05-09T09:49:30.003Z,120118.844
2023-05-09T09:50:29.685Z,119481.016
2023-05-09T09:51:30.150Z,113495.328
2023-05-09T09:52:29.470Z,115102.094
2023-05-09T09:53:29.998Z,117771.688
2023-05-09T09:54:29.289Z,118951.367
2023-05-09T09:55:29.577Z,119837.484
2023-05-09T09:56:29.822Z,123847.094
2023-05-09T09:57:30.129Z,124868.836
2023-05-09T09:58:29.425Z,129294.789
2023-05-09T09:59:30.024Z,131549.484
2023-05-09T10:00:29.689Z,125368.477
2023-05-09T10:01:30.357Z,123304.125
2023-05-09T10:02:29.672Z,131210.188
2023-05-09T10:03:30.583Z,131640.500
2023-05-09T10:05:30.208Z,124600.320
2023-05-09T10:06:29.447Z,127718.195
2023-05-09T10:07:30.839Z,122912.984
2023-05-09T10:08:30.114Z,117144.773
2023-05-09T10:09:29.376Z,116992.625
2023-05-09T10:10:30.020Z,123194.984
2023-05-09T10:11:29.214Z,128569.969
2023-05-09T10:12:29.486Z,128711.688
2023-05-09T10:13:30.564Z,132624.516
2023-05-09T10:14:29.907Z,133151.281
2023-05-09T10:15:35.640Z,132371.891
2023-05-09T10:16:48.767Z,131738.406
2023-05-09T10:19:29.622Z,123383.414
2023-05-09T10:20:30.269Z,126344.641
2023-05-09T10:21:29.604Z,137197.641
2023-05-09T10:22:29.846Z,135936.766
2023-05-09T10:23:30.152Z,127082.617
2023-05-09T10:24:29.339Z,127294.633
2023-05-09T10:25:29.614Z,128893.055
2023-05-09T10:26:29.842Z,123451.945
2023-05-09T10:27:30.034Z,107345.930
2023-05-09T10:28:29.251Z,94953.883
2023-05-09T10:29:29.469Z,93341.664
2023-05-09T10:30:30.297Z,99543.867
2023-05-09T10:31:30.154Z,108237.352
2023-05-09T10:32:29.455Z,108088.727
2023-05-09T10:33:29.758Z,106374.742
2023-05-09T10:34:29.989Z,105068.594
2023-05-09T10:35:29.569Z,110524.148
2023-05-09T10:36:29.882Z,121509.578
2023-05-09T10:37:30.986Z,120006.172
2023-05-09T10:38:29.862Z,117363.219
2023-05-09T10:39:30.074Z,121542.156
2023-05-09T10:40:29.470Z,128185.891
2023-05-09T10:41:29.878Z,131730.531
2023-05-09T10:42:30.157Z,132622.750
2023-05-09T10:43:29.485Z,132937.500
2023-05-09T10:44:29.733Z,128064.070
2023-05-09T10:45:30.528Z,123680.180
2023-05-09T10:46:30.091Z,115723.391
2023-05-09T10:47:29.517Z,117902.977
2023-05-09T10:48:29.775Z,138076.547
2023-05-09T10:49:30.073Z,156318.656
2023-05-09T10:50:29.545Z,144700.062
2023-05-09T10:51:29.855Z,132756.609
2023-05-09T10:52:29.994Z,142151.000
2023-05-09T10:53:29.239Z,143374.656
2023-05-09T10:54:30.924Z,135214.672
2023-05-09T10:55:29.659Z,128402.891
2023-05-09T10:56:29.889Z,138346.984
2023-05-09T10:57:30.145Z,126264.711
2023-05-09T10:58:29.451Z,117269.328
2023-05-09T10:59:29.712Z,118348.367
2023-05-09T11:00:30.857Z,118638.547
2023-05-09T11:01:30.479Z,122677.531
2023-05-09T11:02:29.895Z,128024.430
2023-05-09T11:03:31.140Z,127985.430
2023-05-09T11:04:29.445Z,122089.781
2023-05-09T11:05:29.723Z,119748.406
2023-05-09T11:06:29.983Z,113322.469
2023-05-09T11:07:29.306Z,114616.742
2023-05-09T11:08:29.526Z,118275.820
2023-05-09T11:09:29.785Z,128514.922
2023-05-09T11:10:30.131Z,141366.000
2023-05-09T11:11:29.354Z,139254.141
2023-05-09T11:12:29.749Z,131840.156
2023-05-09T11:13:30.563Z,133507.594
2023-05-09T11:14:29.859Z,146145.688
2023-05-09T11:15:30.134Z,140229.172
2023-05-09T11:16:29.559Z,115634.633
2023-05-09T11:17:30.287Z,113451.188
2023-05-09T11:18:30.769Z,133067.656
2023-05-09T11:19:30.068Z,131444.688
2023-05-09T11:20:29.313Z,120952.477
2023-05-09T11:21:29.572Z,129467.969
2023-05-09T11:22:29.764Z,143155.250
2023-05-09T11:23:29.978Z,119939.727
2023-05-09T11:24:29.163Z,110107.977
2023-05-09T11:25:29.827Z,121455.805
2023-05-09T11:26:30.215Z,132334.172
2023-05-09T11:28:29.670Z,134571.859
2023-05-09T11:29:29.877Z,137636.938
2023-05-09T11:30:30.671Z,136652.422
2023-05-09T11:31:30.178Z,129931.648
2023-05-09T11:32:29.933Z,128799.000
2023-05-09T11:33:30.180Z,129885.906
2023-05-09T11:34:29.383Z,128355.219
2023-05-09T11:35:30.367Z,117765.273
2023-05-09T11:36:29.660Z,123501.703
2023-05-09T11:37:29.981Z,125068.984
2023-05-09T11:38:30.171Z,121301.570
2023-05-09T11:39:29.385Z,124133.586
2023-05-09T11:40:29.750Z,130824.352
2023-05-09T11:41:30.000Z,136020.062
2023-05-09T11:42:29.226Z,141077.578
2023-05-09T11:43:29.511Z,137579.953
2023-05-09T11:44:29.808Z,126404.344
2023-05-09T11:45:30.480Z,116406.797
2023-05-09T11:46:30.099Z,111253.625
2023-05-09T11:47:29.488Z,114418.367
2023-05-09T11:48:29.769Z,111890.164
2023-05-09T11:49:29.992Z,113911.023
2023-05-09T11:50:29.202Z,119613.430
2023-05-09T11:51:31.090Z,121908.258
2023-05-09T11:52:29.340Z,122311.109
2023-05-09T11:53:29.580Z,123416.312
2023-05-09T11:54:29.783Z,121120.680
2023-05-09T11:55:31.338Z,120342.898
2023-05-09T11:56:29.687Z,120642.875
2023-05-09T11:57:29.960Z,118974.797
2023-05-09T11:58:30.284Z,124112.078
2023-05-09T11:59:29.722Z,120757.789
2023-05-09T12:00:30.005Z,128327.617
2023-05-09T12:01:29.313Z,131026.102
2023-05-09T12:02:30.119Z,125985.758
2023-05-09T12:03:31.046Z,126017.539
2023-05-09T12:04:29.651Z,129926.836
2023-05-09T12:05:30.339Z,125541.977
2023-05-09T12:06:29.590Z,123386.945
2023-05-09T12:07:29.971Z,125006.547
2023-05-09T12:08:30.258Z,121147.328
2023-05-09T12:09:29.486Z,124976.859
2023-05-09T12:10:29.938Z,126528.250
2023-05-09T12:11:30.600Z,125393.516
2023-05-09T12:12:29.902Z,124842.836
2023-05-09T12:13:30.813Z,115474.617
2023-05-09T12:14:30.603Z,119872.953